sensor_id;sensor_type;location;lat;lon;timestamp;P1;durP1;ratioP1;P2;durP2;ratioP2
30647;SDS011;17683;53.360;9.736;2022-10-16T00:00:30;9.82;;;5.35;;
30647;SDS011;17683;53.360;9.736;2022-10-16T00:02:56;6.18;;;4.85;;
30647;SDS011;17683;53.360;9.736;2022-10-16T00:05:21;6.28;;;4.65;;
30647;SDS011;17683;53.360;9.736;2022-10-16T00:07:47;8.18;;;4.47;;
30647;SDS011;17683;53.360;9.736;2022-10-16T00:10:13;10.77;;;4.30;;
30647;SDS011;17683;53.360;9.736;2022-10-16T00:12:39;11.13;;;6.40;;
30647;SDS011;17683;53.360;9.736;2022-10-16T00:15:05;7.13;;;3.75;;
30647;SDS011;17683;53.360;9.736;2022-10-16T00:17:31;5.68;;;4.07;;
30647;SDS011;17683;53.360;9.736;2022-10-16T00:19:56;5.18;;;3.80;;
30647;SDS011;17683;53.360;9.736;2022-10-16T00:22:23;8.23;;;3.80;;
30647;SDS011;17683;53.360;9.736;2022-10-16T00:24:49;5.47;;;3.47;;
30647;SDS011;17683;53.360;9.736;2022-10-16T00:27:14;5.68;;;3.63;;
30647;SDS011;17683;53.360;9.736;2022-10-16T00:29:41;5.88;;;3.35;;
30647;SDS011;17683;53.360;9.736;2022-10-16T00:32:07;7.43;;;3.83;;
30647;SDS011;17683;53.360;9.736;2022-10-16T00:34:33;4.88;;;3.88;;
30647;SDS011;17683;53.360;9.736;2022-10-16T00:36:59;7.40;;;4.03;;
30647;SDS011;17683;53.360;9.736;2022-10-16T00:39:24;12.88;;;4.03;;
30647;SDS011;17683;53.360;9.736;2022-10-16T00:41:50;10.55;;;3.90;;
30647;SDS011;17683;53.360;9.736;2022-10-16T00:47:34;13.90;;;4.82;;
30647;SDS011;17683;53.360;9.736;2022-10-16T00:50:06;6.88;;;4.15;;
30647;SDS011;17683;53.360;9.736;2022-10-16T00:52:36;6.78;;;3.42;;
30647;SDS011;17683;53.360;9.736;2022-10-16T00:55:06;8.07;;;3.55;;
30647;SDS011;17683;53.360;9.736;2022-10-16T00:57:34;6.15;;;3.75;;
30647;SDS011;17683;53.360;9.736;2022-10-16T01:00:00;4.20;;;3.00;;
30647;SDS011;17683;53.360;9.736;2022-10-16T01:02:28;6.43;;;3.17;;
30647;SDS011;17683;53.360;9.736;2022-10-16T01:04:54;4.68;;;3.13;;
30647;SDS011;17683;53.360;9.736;2022-10-16T01:07:23;6.68;;;3.15;;
30647;SDS011;17683;53.360;9.736;2022-10-16T01:20:45;6.70;;;2.53;;
30647;SDS011;17683;53.360;9.736;2022-10-16T01:28:51;8.48;;;2.50;;
30647;SDS011;17683;53.360;9.736;2022-10-16T01:31:22;3.75;;;2.08;;
30647;SDS011;17683;53.360;9.736;2022-10-16T01:33:55;4.03;;;2.17;;
30647;SDS011;17683;53.360;9.736;2022-10-16T01:36:34;4.15;;;2.42;;
30647;SDS011;17683;53.360;9.736;2022-10-16T01:39:03;5.57;;;1.98;;
30647;SDS011;17683;53.360;9.736;2022-10-16T01:41:33;3.53;;;2.08;;
30647;SDS011;17683;53.360;9.736;2022-10-16T01:44:08;4.85;;;2.00;;
30647;SDS011;17683;53.360;9.736;2022-10-16T01:46:46;6.43;;;1.95;;
30647;SDS011;17683;53.360;9.736;2022-10-16T01:49:14;4.95;;;2.42;;
30647;SDS011;17683;53.360;9.736;2022-10-16T01:51:43;3.95;;;2.20;;
30647;SDS011;17683;53.360;9.736;2022-10-16T01:54:12;5.40;;;2.20;;
30647;SDS011;17683;53.360;9.736;2022-10-16T01:56:40;7.38;;;2.03;;
30647;SDS011;17683;53.360;9.736;2022-10-16T01:59:11;2.97;;;2.10;;
30647;SDS011;17683;53.360;9.736;2022-10-16T02:01:41;3.13;;;2.00;;
30647;SDS011;17683;53.360;9.736;2022-10-16T02:04:17;4.25;;;2.08;;
30647;SDS011;17683;53.360;9.736;2022-10-16T02:06:47;6.10;;;2.08;;
30647;SDS011;17683;53.360;9.736;2022-10-16T02:09:12;4.43;;;1.75;;
30647;SDS011;17683;53.360;9.736;2022-10-16T02:11:40;4.97;;;2.10;;
30647;SDS011;17683;53.360;9.736;2022-10-16T02:14:06;3.13;;;2.00;;
30647;SDS011;17683;53.360;9.736;2022-10-16T02:16:39;4.57;;;1.95;;
30647;SDS011;17683;53.360;9.736;2022-10-16T02:19:07;3.40;;;1.55;;
30647;SDS011;17683;53.360;9.736;2022-10-16T02:26:52;3.83;;;1.90;;
30647;SDS011;17683;53.360;9.736;2022-10-16T02:29:28;5.53;;;1.70;;
30647;SDS011;17683;53.360;9.736;2022-10-16T02:32:01;5.78;;;2.08;;
30647;SDS011;17683;53.360;9.736;2022-10-16T02:34:30;3.45;;;1.90;;
30647;SDS011;17683;53.360;9.736;2022-10-16T02:36:58;2.88;;;1.77;;
30647;SDS011;17683;53.360;9.736;2022-10-16T02:39:26;5.35;;;2.20;;
30647;SDS011;17683;53.360;9.736;2022-10-16T02:41:53;3.83;;;1.83;;
30647;SDS011;17683;53.360;9.736;2022-10-16T02:44:19;7.88;;;1.85;;
30647;SDS011;17683;53.360;9.736;2022-10-16T02:46:45;9.55;;;2.00;;
30647;SDS011;17683;53.360;9.736;2022-10-16T02:49:11;4.97;;;1.70;;
30647;SDS011;17683;53.360;9.736;2022-10-16T02:51:36;6.55;;;2.35;;
30647;SDS011;17683;53.360;9.736;2022-10-16T02:54:02;4.65;;;1.80;;
30647;SDS011;17683;53.360;9.736;2022-10-16T02:56:29;10.05;;;2.85;;
30647;SDS011;17683;53.360;9.736;2022-10-16T02:58:55;4.13;;;1.98;;
30647;SDS011;17683;53.360;9.736;2022-10-16T03:01:21;6.78;;;2.35;;
30647;SDS011;17683;53.360;9.736;2022-10-16T03:03:47;3.42;;;1.88;;
30647;SDS011;17683;53.360;9.736;2022-10-16T03:06:13;3.90;;;1.58;;
30647;SDS011;17683;53.360;9.736;2022-10-16T03:08:38;15.50;;;2.35;;
30647;SDS011;17683;53.360;9.736;2022-10-16T03:11:04;4.82;;;2.03;;
30647;SDS011;17683;53.360;9.736;2022-10-16T03:13:30;10.23;;;2.22;;
30647;SDS011;17683;53.360;9.736;2022-10-16T03:15:56;6.30;;;2.10;;
30647;SDS011;17683;53.360;9.736;2022-10-16T03:18:21;4.68;;;1.90;;
30647;SDS011;17683;53.360;9.736;2022-10-16T03:20:47;3.92;;;2.10;;
30647;SDS011;17683;53.360;9.736;2022-10-16T03:23:13;10.43;;;3.42;;
30647;SDS011;17683;53.360;9.736;2022-10-16T03:25:39;7.38;;;2.15;;
30647;SDS011;17683;53.360;9.736;2022-10-16T03:28:04;4.63;;;2.35;;
30647;SDS011;17683;53.360;9.736;2022-10-16T03:30:30;2.35;;;1.75;;
30647;SDS011;17683;53.360;9.736;2022-10-16T03:32:56;3.30;;;1.67;;
30647;SDS011;17683;53.360;9.736;2022-10-16T03:35:22;5.72;;;2.65;;
30647;SDS011;17683;53.360;9.736;2022-10-16T03:37:49;9.90;;;2.08;;
30647;SDS011;17683;53.360;9.736;2022-10-16T03:40:15;8.02;;;2.05;;
30647;SDS011;17683;53.360;9.736;2022-10-16T03:42:42;10.68;;;2.70;;
30647;SDS011;17683;53.360;9.736;2022-10-16T03:45:08;4.25;;;2.30;;
30647;SDS011;17683;53.360;9.736;2022-10-16T03:47:34;6.80;;;1.98;;
30647;SDS011;17683;53.360;9.736;2022-10-16T03:50:00;3.17;;;1.98;;
30647;SDS011;17683;53.360;9.736;2022-10-16T03:52:26;3.15;;;2.03;;
30647;SDS011;17683;53.360;9.736;2022-10-16T03:54:52;3.65;;;1.83;;
30647;SDS011;17683;53.360;9.736;2022-10-16T03:57:17;4.22;;;2.30;;
30647;SDS011;17683;53.360;9.736;2022-10-16T03:59:43;5.40;;;2.08;;
30647;SDS011;17683;53.360;9.736;2022-10-16T04:02:09;5.18;;;2.05;;
30647;SDS011;17683;53.360;9.736;2022-10-16T04:04:35;7.57;;;2.47;;
30647;SDS011;17683;53.360;9.736;2022-10-16T04:07:01;2.95;;;1.73;;
30647;SDS011;17683;53.360;9.736;2022-10-16T04:09:27;3.35;;;2.20;;
30647;SDS011;17683;53.360;9.736;2022-10-16T04:11:52;3.05;;;1.98;;
30647;SDS011;17683;53.360;9.736;2022-10-16T04:14:18;5.28;;;2.33;;
30647;SDS011;17683;53.360;9.736;2022-10-16T04:16:44;6.43;;;2.33;;
30647;SDS011;17683;53.360;9.736;2022-10-16T04:19:10;3.97;;;2.10;;
30647;SDS011;17683;53.360;9.736;2022-10-16T04:21:36;5.45;;;2.40;;
30647;SDS011;17683;53.360;9.736;2022-10-16T04:24:02;4.97;;;2.22;;
30647;SDS011;17683;53.360;9.736;2022-10-16T04:26:28;4.93;;;2.10;;
30647;SDS011;17683;53.360;9.736;2022-10-16T04:28:54;4.78;;;2.20;;
30647;SDS011;17683;53.360;9.736;2022-10-16T04:31:20;4.45;;;2.50;;
30647;SDS011;17683;53.360;9.736;2022-10-16T04:33:46;8.55;;;2.63;;
30647;SDS011;17683;53.360;9.736;2022-10-16T04:36:12;3.25;;;2.17;;
30647;SDS011;17683;53.360;9.736;2022-10-16T04:38:38;7.90;;;2.70;;
30647;SDS011;17683;53.360;9.736;2022-10-16T04:41:05;7.78;;;2.85;;
30647;SDS011;17683;53.360;9.736;2022-10-16T04:43:31;6.88;;;2.90;;
30647;SDS011;17683;53.360;9.736;2022-10-16T04:45:57;6.38;;;2.85;;
30647;SDS011;17683;53.360;9.736;2022-10-16T04:48:23;5.43;;;2.70;;
30647;SDS011;17683;53.360;9.736;2022-10-16T04:50:48;6.40;;;3.20;;
30647;SDS011;17683;53.360;9.736;2022-10-16T04:53:14;5.97;;;3.20;;
30647;SDS011;17683;53.360;9.736;2022-10-16T04:55:40;7.13;;;3.08;;
30647;SDS011;17683;53.360;9.736;2022-10-16T04:58:07;5.80;;;3.58;;
30647;SDS011;17683;53.360;9.736;2022-10-16T05:00:33;9.00;;;3.08;;
30647;SDS011;17683;53.360;9.736;2022-10-16T05:02:59;7.13;;;3.10;;
30647;SDS011;17683;53.360;9.736;2022-10-16T05:05:26;11.45;;;3.88;;
30647;SDS011;17683;53.360;9.736;2022-10-16T05:07:52;5.85;;;2.88;;
30647;SDS011;17683;53.360;9.736;2022-10-16T05:10:17;3.28;;;2.72;;
30647;SDS011;17683;53.360;9.736;2022-10-16T05:12:43;4.05;;;2.80;;
30647;SDS011;17683;53.360;9.736;2022-10-16T05:15:09;6.43;;;3.55;;
30647;SDS011;17683;53.360;9.736;2022-10-16T05:17:35;6.95;;;3.72;;
30647;SDS011;17683;53.360;9.736;2022-10-16T05:20:02;4.50;;;2.83;;
30647;SDS011;17683;53.360;9.736;2022-10-16T05:22:28;6.60;;;3.03;;
30647;SDS011;17683;53.360;9.736;2022-10-16T05:24:54;9.23;;;3.47;;
30647;SDS011;17683;53.360;9.736;2022-10-16T05:27:20;8.25;;;3.58;;
30647;SDS011;17683;53.360;9.736;2022-10-16T05:29:46;8.77;;;3.03;;
30647;SDS011;17683;53.360;9.736;2022-10-16T05:32:13;8.43;;;3.10;;
30647;SDS011;17683;53.360;9.736;2022-10-16T05:34:40;8.43;;;3.47;;
30647;SDS011;17683;53.360;9.736;2022-10-16T05:37:06;6.32;;;3.30;;
30647;SDS011;17683;53.360;9.736;2022-10-16T05:39:32;5.28;;;3.30;;
30647;SDS011;17683;53.360;9.736;2022-10-16T05:41:57;3.08;;;2.78;;
30647;SDS011;17683;53.360;9.736;2022-10-16T05:44:23;11.32;;;4.07;;
30647;SDS011;17683;53.360;9.736;2022-10-16T05:46:49;8.65;;;3.70;;
30647;SDS011;17683;53.360;9.736;2022-10-16T05:49:14;6.88;;;3.65;;
30647;SDS011;17683;53.360;9.736;2022-10-16T05:51:40;9.98;;;3.63;;
30647;SDS011;17683;53.360;9.736;2022-10-16T05:54:06;4.00;;;2.88;;
30647;SDS011;17683;53.360;9.736;2022-10-16T05:56:33;6.15;;;2.92;;
30647;SDS011;17683;53.360;9.736;2022-10-16T05:58:58;8.45;;;3.65;;
30647;SDS011;17683;53.360;9.736;2022-10-16T06:01:24;8.05;;;3.47;;
30647;SDS011;17683;53.360;9.736;2022-10-16T06:03:50;7.00;;;2.97;;
30647;SDS011;17683;53.360;9.736;2022-10-16T06:06:19;5.53;;;3.70;;
30647;SDS011;17683;53.360;9.736;2022-10-16T06:08:47;9.52;;;3.05;;
30647;SDS011;17683;53.360;9.736;2022-10-16T06:11:15;7.80;;;3.47;;
30647;SDS011;17683;53.360;9.736;2022-10-16T06:13:48;8.07;;;3.50;;
30647;SDS011;17683;53.360;9.736;2022-10-16T06:16:15;6.10;;;3.55;;
30647;SDS011;17683;53.360;9.736;2022-10-16T06:18:40;6.95;;;3.60;;
30647;SDS011;17683;53.360;9.736;2022-10-16T06:21:10;8.52;;;4.57;;
30647;SDS011;17683;53.360;9.736;2022-10-16T06:23:41;12.40;;;4.35;;
30647;SDS011;17683;53.360;9.736;2022-10-16T06:26:07;11.25;;;4.45;;
30647;SDS011;17683;53.360;9.736;2022-10-16T06:28:34;10.07;;;4.65;;
30647;SDS011;17683;53.360;9.736;2022-10-16T06:31:00;6.05;;;4.57;;
30647;SDS011;17683;53.360;9.736;2022-10-16T06:33:28;9.40;;;4.85;;
30647;SDS011;17683;53.360;9.736;2022-10-16T06:35:53;7.43;;;5.45;;
30647;SDS011;17683;53.360;9.736;2022-10-16T06:38:24;8.30;;;4.60;;
30647;SDS011;17683;53.360;9.736;2022-10-16T06:40:50;8.93;;;4.43;;
30647;SDS011;17683;53.360;9.736;2022-10-16T06:43:16;9.75;;;4.90;;
30647;SDS011;17683;53.360;9.736;2022-10-16T06:45:41;9.35;;;5.40;;
30647;SDS011;17683;53.360;9.736;2022-10-16T06:48:07;11.63;;;5.22;;
30647;SDS011;17683;53.360;9.736;2022-10-16T06:50:32;8.07;;;4.65;;
30647;SDS011;17683;53.360;9.736;2022-10-16T06:52:58;12.60;;;4.55;;
30647;SDS011;17683;53.360;9.736;2022-10-16T06:55:24;12.68;;;5.22;;
30647;SDS011;17683;53.360;9.736;2022-10-16T06:57:49;12.00;;;5.28;;
30647;SDS011;17683;53.360;9.736;2022-10-16T07:00:15;9.52;;;4.80;;
30647;SDS011;17683;53.360;9.736;2022-10-16T07:02:41;8.05;;;4.28;;
30647;SDS011;17683;53.360;9.736;2022-10-16T07:05:07;10.55;;;4.55;;
30647;SDS011;17683;53.360;9.736;2022-10-16T07:07:33;10.05;;;4.95;;
30647;SDS011;17683;53.360;9.736;2022-10-16T07:09:58;12.18;;;5.13;;
30647;SDS011;17683;53.360;9.736;2022-10-16T07:12:24;6.55;;;4.10;;
30647;SDS011;17683;53.360;9.736;2022-10-16T07:14:50;10.05;;;4.93;;
30647;SDS011;17683;53.360;9.736;2022-10-16T07:17:17;9.55;;;4.47;;
30647;SDS011;17683;53.360;9.736;2022-10-16T07:19:43;8.93;;;4.80;;
30647;SDS011;17683;53.360;9.736;2022-10-16T07:22:09;12.93;;;4.70;;
30647;SDS011;17683;53.360;9.736;2022-10-16T07:24:35;9.43;;;4.90;;
30647;SDS011;17683;53.360;9.736;2022-10-16T07:27:01;6.82;;;4.50;;
30647;SDS011;17683;53.360;9.736;2022-10-16T07:29:26;11.13;;;4.82;;
30647;SDS011;17683;53.360;9.736;2022-10-16T07:31:52;10.00;;;4.53;;
30647;SDS011;17683;53.360;9.736;2022-10-16T07:36:49;7.15;;;4.60;;
30647;SDS011;17683;53.360;9.736;2022-10-16T07:39:15;8.70;;;4.68;;
30647;SDS011;17683;53.360;9.736;2022-10-16T07:41:41;6.63;;;3.90;;
30647;SDS011;17683;53.360;9.736;2022-10-16T07:44:07;6.00;;;3.60;;
30647;SDS011;17683;53.360;9.736;2022-10-16T07:46:33;9.82;;;4.20;;
30647;SDS011;17683;53.360;9.736;2022-10-16T07:49:01;9.48;;;4.25;;
30647;SDS011;17683;53.360;9.736;2022-10-16T07:51:27;9.75;;;4.35;;
30647;SDS011;17683;53.360;9.736;2022-10-16T07:53:53;10.80;;;5.25;;
30647;SDS011;17683;53.360;9.736;2022-10-16T07:56:19;8.02;;;4.00;;
30647;SDS011;17683;53.360;9.736;2022-10-16T07:58:46;9.43;;;4.15;;
30647;SDS011;17683;53.360;9.736;2022-10-16T08:01:12;6.13;;;3.72;;
30647;SDS011;17683;53.360;9.736;2022-10-16T08:03:43;10.80;;;4.35;;
30647;SDS011;17683;53.360;9.736;2022-10-16T08:06:11;6.85;;;3.85;;
30647;SDS011;17683;53.360;9.736;2022-10-16T08:08:37;8.57;;;4.28;;
30647;SDS011;17683;53.360;9.736;2022-10-16T08:11:03;6.95;;;3.53;;
30647;SDS011;17683;53.360;9.736;2022-10-16T08:13:29;4.43;;;3.70;;
30647;SDS011;17683;53.360;9.736;2022-10-16T08:15:55;5.28;;;3.72;;
30647;SDS011;17683;53.360;9.736;2022-10-16T08:18:21;5.28;;;3.72;;
30647;SDS011;17683;53.360;9.736;2022-10-16T08:20:47;11.02;;;3.40;;
30647;SDS011;17683;53.360;9.736;2022-10-16T08:23:12;6.15;;;3.42;;
30647;SDS011;17683;53.360;9.736;2022-10-16T08:25:39;5.63;;;3.10;;
30647;SDS011;17683;53.360;9.736;2022-10-16T08:28:06;4.57;;;3.40;;
30647;SDS011;17683;53.360;9.736;2022-10-16T08:30:33;6.43;;;3.10;;
30647;SDS011;17683;53.360;9.736;2022-10-16T08:32:59;5.65;;;2.60;;
30647;SDS011;17683;53.360;9.736;2022-10-16T08:35:25;5.68;;;3.22;;
30647;SDS011;17683;53.360;9.736;2022-10-16T08:37:51;12.40;;;3.00;;
30647;SDS011;17683;53.360;9.736;2022-10-16T08:40:22;3.40;;;2.55;;
30647;SDS011;17683;53.360;9.736;2022-10-16T08:50:55;5.65;;;2.40;;
30647;SDS011;17683;53.360;9.736;2022-10-16T08:53:23;4.50;;;2.53;;
30647;SDS011;17683;53.360;9.736;2022-10-16T08:55:54;8.02;;;3.58;;
30647;SDS011;17683;53.360;9.736;2022-10-16T08:58:21;5.53;;;2.47;;
30647;SDS011;17683;53.360;9.736;2022-10-16T09:01:35;7.97;;;2.30;;
30647;SDS011;17683;53.360;9.736;2022-10-16T09:12:28;4.25;;;2.35;;
30647;SDS011;17683;53.360;9.736;2022-10-16T09:20:32;3.63;;;1.90;;
30647;SDS011;17683;53.360;9.736;2022-10-16T09:25:45;8.07;;;2.05;;
30647;SDS011;17683;53.360;9.736;2022-10-16T09:28:13;8.93;;;2.40;;
30647;SDS011;17683;53.360;9.736;2022-10-16T09:30:39;5.30;;;2.13;;
30647;SDS011;17683;53.360;9.736;2022-10-16T09:33:06;8.02;;;2.15;;
30647;SDS011;17683;53.360;9.736;2022-10-16T09:35:39;5.10;;;2.28;;
30647;SDS011;17683;53.360;9.736;2022-10-16T09:38:29;4.40;;;2.15;;
30647;SDS011;17683;53.360;9.736;2022-10-16T09:40:57;17.02;;;1.60;;
30647;SDS011;17683;53.360;9.736;2022-10-16T09:43:48;5.68;;;1.70;;
30647;SDS011;17683;53.360;9.736;2022-10-16T09:46:33;8.23;;;2.17;;
30647;SDS011;17683;53.360;9.736;2022-10-16T09:49:05;5.20;;;1.58;;
30647;SDS011;17683;53.360;9.736;2022-10-16T09:51:45;3.22;;;1.60;;
30647;SDS011;17683;53.360;9.736;2022-10-16T09:54:14;4.45;;;1.50;;
30647;SDS011;17683;53.360;9.736;2022-10-16T09:56:45;5.28;;;1.70;;
30647;SDS011;17683;53.360;9.736;2022-10-16T09:59:15;8.18;;;1.30;;
30647;SDS011;17683;53.360;9.736;2022-10-16T10:04:09;4.35;;;1.83;;
30647;SDS011;17683;53.360;9.736;2022-10-16T10:06:36;4.55;;;1.50;;
30647;SDS011;17683;53.360;9.736;2022-10-16T10:11:57;4.32;;;1.90;;
30647;SDS011;17683;53.360;9.736;2022-10-16T10:14:41;5.20;;;1.70;;
30647;SDS011;17683;53.360;9.736;2022-10-16T10:17:20;6.03;;;1.75;;
30647;SDS011;17683;53.360;9.736;2022-10-16T10:19:49;5.70;;;1.35;;
30647;SDS011;17683;53.360;9.736;2022-10-16T10:27:50;7.43;;;1.35;;
30647;SDS011;17683;53.360;9.736;2022-10-16T10:36:36;4.60;;;1.40;;
30647;SDS011;17683;53.360;9.736;2022-10-16T10:45:16;2.13;;;1.10;;
30647;SDS011;17683;53.360;9.736;2022-10-16T10:47:55;7.38;;;1.30;;
30647;SDS011;17683;53.360;9.736;2022-10-16T10:56:39;4.25;;;1.27;;
30647;SDS011;17683;53.360;9.736;2022-10-16T10:59:32;2.92;;;1.13;;
30647;SDS011;17683;53.360;9.736;2022-10-16T11:02:20;5.93;;;1.48;;
30647;SDS011;17683;53.360;9.736;2022-10-16T11:05:03;7.03;;;1.38;;
30647;SDS011;17683;53.360;9.736;2022-10-16T11:07:39;3.38;;;1.40;;
30647;SDS011;17683;53.360;9.736;2022-10-16T11:10:50;4.75;;;1.35;;
30647;SDS011;17683;53.360;9.736;2022-10-16T11:13:21;6.75;;;1.40;;
30647;SDS011;17683;53.360;9.736;2022-10-16T11:15:58;4.80;;;1.45;;
30647;SDS011;17683;53.360;9.736;2022-10-16T11:18:32;10.50;;;1.58;;
30647;SDS011;17683;53.360;9.736;2022-10-16T11:21:08;4.55;;;1.25;;
30647;SDS011;17683;53.360;9.736;2022-10-16T11:26:41;8.70;;;1.52;;
30647;SDS011;17683;53.360;9.736;2022-10-16T11:29:25;3.65;;;1.48;;
30647;SDS011;17683;53.360;9.736;2022-10-16T11:31:55;4.00;;;0.90;;
30647;SDS011;17683;53.360;9.736;2022-10-16T11:34:38;2.25;;;1.08;;
30647;SDS011;17683;53.360;9.736;2022-10-16T11:39:41;1.65;;;1.02;;
30647;SDS011;17683;53.360;9.736;2022-10-16T11:42:22;12.10;;;1.80;;
30647;SDS011;17683;53.360;9.736;2022-10-16T11:47:48;2.97;;;0.98;;
30647;SDS011;17683;53.360;9.736;2022-10-16T11:53:14;4.82;;;1.33;;
30647;SDS011;17683;53.360;9.736;2022-10-16T11:55:42;4.55;;;1.55;;
30647;SDS011;17683;53.360;9.736;2022-10-16T11:58:13;6.75;;;1.50;;
30647;SDS011;17683;53.360;9.736;2022-10-16T12:03:45;4.28;;;0.95;;
30647;SDS011;17683;53.360;9.736;2022-10-16T12:08:58;7.10;;;1.45;;
30647;SDS011;17683;53.360;9.736;2022-10-16T12:14:04;3.03;;;1.10;;
30647;SDS011;17683;53.360;9.736;2022-10-16T12:16:50;7.05;;;1.45;;
30647;SDS011;17683;53.360;9.736;2022-10-16T12:19:16;6.63;;;1.40;;
30647;SDS011;17683;53.360;9.736;2022-10-16T12:21:44;5.78;;;1.77;;
30647;SDS011;17683;53.360;9.736;2022-10-16T12:24:21;7.05;;;1.10;;
30647;SDS011;17683;53.360;9.736;2022-10-16T12:26:56;5.28;;;1.52;;
30647;SDS011;17683;53.360;9.736;2022-10-16T12:31:55;5.95;;;1.30;;
30647;SDS011;17683;53.360;9.736;2022-10-16T12:34:22;4.97;;;1.33;;
30647;SDS011;17683;53.360;9.736;2022-10-16T12:37:08;10.15;;;1.40;;
30647;SDS011;17683;53.360;9.736;2022-10-16T12:39:34;6.07;;;1.38;;
30647;SDS011;17683;53.360;9.736;2022-10-16T12:42:05;4.25;;;1.40;;
30647;SDS011;17683;53.360;9.736;2022-10-16T12:44:53;6.63;;;1.30;;
30647;SDS011;17683;53.360;9.736;2022-10-16T12:47:24;4.85;;;1.10;;
30647;SDS011;17683;53.360;9.736;2022-10-16T12:50:03;5.07;;;1.20;;
30647;SDS011;17683;53.360;9.736;2022-10-16T12:52:47;6.60;;;1.30;;
30647;SDS011;17683;53.360;9.736;2022-10-16T12:55:17;8.68;;;1.35;;
30647;SDS011;17683;53.360;9.736;2022-10-16T13:00:45;6.30;;;1.15;;
30647;SDS011;17683;53.360;9.736;2022-10-16T13:08:55;4.50;;;1.35;;
30647;SDS011;17683;53.360;9.736;2022-10-16T13:11:41;4.18;;;1.02;;
30647;SDS011;17683;53.360;9.736;2022-10-16T13:22:15;5.47;;;1.40;;
30647;SDS011;17683;53.360;9.736;2022-10-16T13:28:11;5.43;;;1.55;;
30647;SDS011;17683;53.360;9.736;2022-10-16T13:33:10;9.00;;;1.67;;
30647;SDS011;17683;53.360;9.736;2022-10-16T13:35:56;6.22;;;1.60;;
30647;SDS011;17683;53.360;9.736;2022-10-16T13:38:26;11.50;;;1.58;;
30647;SDS011;17683;53.360;9.736;2022-10-16T13:46:21;7.20;;;1.35;;
30647;SDS011;17683;53.360;9.736;2022-10-16T13:48:58;5.80;;;1.27;;
30647;SDS011;17683;53.360;9.736;2022-10-16T13:51:25;2.88;;;1.00;;
30647;SDS011;17683;53.360;9.736;2022-10-16T13:53:52;4.60;;;1.23;;
30647;SDS011;17683;53.360;9.736;2022-10-16T13:56:20;6.95;;;1.30;;
30647;SDS011;17683;53.360;9.736;2022-10-16T13:59:04;8.55;;;1.67;;
30647;SDS011;17683;53.360;9.736;2022-10-16T14:01:34;9.15;;;1.40;;
30647;SDS011;17683;53.360;9.736;2022-10-16T14:04:07;5.45;;;1.90;;
30647;SDS011;17683;53.360;9.736;2022-10-16T14:06:35;6.35;;;1.13;;
30647;SDS011;17683;53.360;9.736;2022-10-16T14:09:08;9.55;;;1.45;;
30647;SDS011;17683;53.360;9.736;2022-10-16T14:11:45;6.50;;;1.40;;
30647;SDS011;17683;53.360;9.736;2022-10-16T14:14:16;6.15;;;1.13;;
30647;SDS011;17683;53.360;9.736;2022-10-16T14:16:43;9.05;;;1.45;;
30647;SDS011;17683;53.360;9.736;2022-10-16T14:19:27;4.25;;;1.10;;
30647;SDS011;17683;53.360;9.736;2022-10-16T14:21:54;4.00;;;1.75;;
30647;SDS011;17683;53.360;9.736;2022-10-16T14:24:25;6.38;;;1.40;;
30647;SDS011;17683;53.360;9.736;2022-10-16T14:26:56;3.53;;;1.08;;
30647;SDS011;17683;53.360;9.736;2022-10-16T14:29:23;7.63;;;1.25;;
30647;SDS011;17683;53.360;9.736;2022-10-16T14:31:58;5.43;;;1.30;;
30647;SDS011;17683;53.360;9.736;2022-10-16T14:34:35;4.18;;;1.20;;
30647;SDS011;17683;53.360;9.736;2022-10-16T14:39:53;6.22;;;1.50;;
30647;SDS011;17683;53.360;9.736;2022-10-16T14:42:20;6.82;;;1.33;;
30647;SDS011;17683;53.360;9.736;2022-10-16T14:44:51;6.28;;;2.05;;
30647;SDS011;17683;53.360;9.736;2022-10-16T14:47:19;6.95;;;1.60;;
30647;SDS011;17683;53.360;9.736;2022-10-16T14:49:49;9.25;;;1.92;;
30647;SDS011;17683;53.360;9.736;2022-10-16T14:52:16;6.28;;;1.70;;
30647;SDS011;17683;53.360;9.736;2022-10-16T14:54:41;5.90;;;1.30;;
30647;SDS011;17683;53.360;9.736;2022-10-16T14:57:21;5.75;;;1.35;;
30647;SDS011;17683;53.360;9.736;2022-10-16T14:59:48;7.43;;;1.23;;
30647;SDS011;17683;53.360;9.736;2022-10-16T15:04:43;5.40;;;1.60;;
30647;SDS011;17683;53.360;9.736;2022-10-16T15:07:09;7.55;;;1.88;;
30647;SDS011;17683;53.360;9.736;2022-10-16T15:09:34;4.72;;;2.10;;
30647;SDS011;17683;53.360;9.736;2022-10-16T15:12:00;6.25;;;1.63;;
30647;SDS011;17683;53.360;9.736;2022-10-16T15:14:26;10.73;;;1.67;;
30647;SDS011;17683;53.360;9.736;2022-10-16T15:16:52;13.43;;;1.95;;
30647;SDS011;17683;53.360;9.736;2022-10-16T15:19:17;10.13;;;2.10;;
30647;SDS011;17683;53.360;9.736;2022-10-16T15:21:43;5.55;;;1.27;;
30647;SDS011;17683;53.360;9.736;2022-10-16T15:24:10;5.22;;;1.67;;
30647;SDS011;17683;53.360;9.736;2022-10-16T15:26:37;6.90;;;1.63;;
30647;SDS011;17683;53.360;9.736;2022-10-16T15:29:03;15.30;;;2.13;;
30647;SDS011;17683;53.360;9.736;2022-10-16T15:31:29;6.07;;;1.45;;
30647;SDS011;17683;53.360;9.736;2022-10-16T15:33:55;6.82;;;1.38;;
30647;SDS011;17683;53.360;9.736;2022-10-16T15:36:29;5.57;;;1.15;;
30647;SDS011;17683;53.360;9.736;2022-10-16T15:38:59;8.82;;;1.55;;
30647;SDS011;17683;53.360;9.736;2022-10-16T15:41:25;3.78;;;1.45;;
30647;SDS011;17683;53.360;9.736;2022-10-16T15:43:51;9.25;;;1.80;;
30647;SDS011;17683;53.360;9.736;2022-10-16T15:46:20;5.65;;;1.50;;
30647;SDS011;17683;53.360;9.736;2022-10-16T15:48:48;6.82;;;1.73;;
30647;SDS011;17683;53.360;9.736;2022-10-16T15:51:15;14.73;;;2.30;;
30647;SDS011;17683;53.360;9.736;2022-10-16T15:53:41;7.07;;;1.70;;
30647;SDS011;17683;53.360;9.736;2022-10-16T15:56:08;13.43;;;2.17;;
30647;SDS011;17683;53.360;9.736;2022-10-16T15:58:34;9.35;;;1.40;;
30647;SDS011;17683;53.360;9.736;2022-10-16T16:01:00;9.00;;;1.70;;
30647;SDS011;17683;53.360;9.736;2022-10-16T16:03:27;8.10;;;1.40;;
30647;SDS011;17683;53.360;9.736;2022-10-16T16:05:53;7.57;;;1.70;;
30647;SDS011;17683;53.360;9.736;2022-10-16T16:08:19;5.20;;;1.27;;
30647;SDS011;17683;53.360;9.736;2022-10-16T16:10:45;13.35;;;1.35;;
30647;SDS011;17683;53.360;9.736;2022-10-16T16:13:21;7.78;;;1.67;;
30647;SDS011;17683;53.360;9.736;2022-10-16T16:15:47;5.85;;;1.33;;
30647;SDS011;17683;53.360;9.736;2022-10-16T16:18:13;4.53;;;1.67;;
30647;SDS011;17683;53.360;9.736;2022-10-16T16:20:38;11.38;;;1.70;;
30647;SDS011;17683;53.360;9.736;2022-10-16T16:23:04;6.97;;;1.98;;
30647;SDS011;17683;53.360;9.736;2022-10-16T16:25:29;8.18;;;1.73;;
30647;SDS011;17683;53.360;9.736;2022-10-16T16:27:55;5.25;;;1.65;;
30647;SDS011;17683;53.360;9.736;2022-10-16T16:30:21;11.82;;;1.48;;
30647;SDS011;17683;53.360;9.736;2022-10-16T16:32:47;6.90;;;1.27;;
30647;SDS011;17683;53.360;9.736;2022-10-16T16:35:12;5.07;;;1.88;;
30647;SDS011;17683;53.360;9.736;2022-10-16T16:37:38;4.90;;;1.73;;
30647;SDS011;17683;53.360;9.736;2022-10-16T16:40:04;6.40;;;1.60;;
30647;SDS011;17683;53.360;9.736;2022-10-16T16:42:30;6.03;;;1.27;;
30647;SDS011;17683;53.360;9.736;2022-10-16T16:44:56;8.25;;;2.00;;
30647;SDS011;17683;53.360;9.736;2022-10-16T16:47:21;7.75;;;1.67;;
30647;SDS011;17683;53.360;9.736;2022-10-16T16:49:47;6.10;;;2.25;;
30647;SDS011;17683;53.360;9.736;2022-10-16T16:52:13;8.93;;;3.13;;
30647;SDS011;17683;53.360;9.736;2022-10-16T16:54:40;9.38;;;3.22;;
30647;SDS011;17683;53.360;9.736;2022-10-16T16:57:06;9.13;;;2.45;;
30647;SDS011;17683;53.360;9.736;2022-10-16T16:59:31;13.02;;;2.35;;
30647;SDS011;17683;53.360;9.736;2022-10-16T17:01:58;8.25;;;1.70;;
30647;SDS011;17683;53.360;9.736;2022-10-16T17:04:24;6.70;;;1.88;;
30647;SDS011;17683;53.360;9.736;2022-10-16T17:06:51;15.43;;;1.92;;
30647;SDS011;17683;53.360;9.736;2022-10-16T17:09:19;9.52;;;1.75;;
30647;SDS011;17683;53.360;9.736;2022-10-16T17:11:45;5.47;;;1.40;;